Terminal Aerodrome Forecast
Issued by NWS Sterling, VA

Current Version | Previous Version | Graphics & Text | Print | Product List | Glossary On
Versions: 1 2 3 4 5 6 7 8 9 10 11 12 13 14 15 16 17 18 19 20 21 22 23 24 25 26 27
393
FTUS41 KLWX 162350
TAFIAD
TAF
KIAD 162350Z 1700/1806 VRB03KT P6SM SCT090 BKN200
     FM170500 VRB03KT 5SM -SN OVC040
     FM170700 33008KT 3SM -SN SCT008 OVC020
     FM171200 33012G18KT P6SM OVC035
     FM171500 32014G23KT P6SM SCT150
     FM180500 30008KT P6SM FEW250=

USA.gov is the U.S. government's official web portal to all federal, state and local government web resources and services.